Time;durP1;ratioP1;P1;durP2;ratioP2;P2;SDS_P1;SDS_P2;PMS_P1;PMS_P2;Temp;Humidity;BMP_temperature;BMP_pressure;BME280_temperature;BME280_humidity;BME280_pressure;Samples;Min_cycle;Max_cycle;Signal;HPM_P1;HPM_P2
2022/03/25 15:42:55;;;;;;;36.30;32.13;;;;;;;;;;5112676;27;86509;-86
2022/03/25 15:45:43;;;;;;;39.07;33.07;;;;;;;;;;5084286;27;88736;-88
2022/03/25 15:48:30;;;;;;;40.63;33.00;;;;;;;;;;5076329;27;88836;-83
2022/03/25 15:51:17;;;;;;;37.83;33.50;;;;;;;;;;5091027;27;88592;-84
2022/03/25 15:54:04;;;;;;;39.67;32.90;;;;;;;;;;5082188;27;88629;-84
2022/03/25 15:56:51;;;;;;;39.40;32.90;;;;;;;;;;5094674;27;89326;-84
2022/03/25 15:59:37;;;;;;;43.53;33.13;;;;;;;;;;5091453;27;88532;-83
2022/03/25 16:02:24;;;;;;;40.73;33.43;;;;;;;;;;5076465;27;90414;-83
2022/03/25 16:05:12;;;;;;;51.70;33.00;;;;;;;;;;5087578;27;88524;-83
2022/03/25 16:08:01;;;;;;;43.60;32.20;;;;;;;;;;5074897;27;88966;-83
2022/03/25 16:10:48;;;;;;;39.33;32.20;;;;;;;;;;5104542;27;88489;-83
2022/03/25 16:13:35;;;;;;;35.10;31.30;;;;;;;;;;5106265;27;88930;-83
2022/03/25 16:16:22;;;;;;;37.83;31.80;;;;;;;;;;5092621;27;88480;-83
2022/03/25 16:19:08;;;;;;;40.10;30.30;;;;;;;;;;5086167;27;88938;-83
2022/03/25 16:21:56;;;;;;;33.07;28.50;;;;;;;;;;5094400;27;89141;-81
2022/03/25 16:24:46;;;;;;;36.50;30.60;;;;;;;;;;5103821;27;88946;-82
2022/03/25 16:27:32;;;;;;;35.87;30.10;;;;;;;;;;5075170;27;88785;-85
2022/03/25 16:30:20;;;;;;;37.03;28.87;;;;;;;;;;5091199;27;90340;-83
2022/03/25 16:33:07;;;;;;;34.90;30.07;;;;;;;;;;5074751;27;89467;-82
2022/03/25 16:35:54;;;;;;;37.63;30.50;;;;;;;;;;5090448;27;88509;-83
2022/03/25 16:38:41;;;;;;;37.60;30.20;;;;;;;;;;5093141;27;89086;-83
2022/03/25 16:41:27;;;;;;;31.90;28.43;;;;;;;;;;5075091;27;88838;-83
2022/03/25 16:44:14;;;;;;;35.40;30.10;;;;;;;;;;5108255;27;88839;-87
2022/03/25 16:47:02;;;;;;;33.77;28.20;;;;;;;;;;5084338;27;88590;-85
2022/03/25 16:49:49;;;;;;;35.17;30.20;;;;;;;;;;5075277;27;89100;-82
2022/03/25 16:52:37;;;;;;;40.13;29.57;;;;;;;;;;5098056;27;89018;-83
2022/03/25 16:55:23;;;;;;;38.03;30.10;;;;;;;;;;5073483;27;88968;-83
2022/03/25 16:58:10;;;;;;;37.40;26.53;;;;;;;;;;5076157;27;88953;-84
2022/03/25 17:00:57;;;;;;;33.33;27.13;;;;;;;;;;5076668;27;88545;-82
2022/03/25 17:03:49;;;;;;;35.90;28.33;;;;;;;;;;5076386;27;89490;-84
2022/03/25 17:06:36;;;;;;;33.40;28.77;;;;;;;;;;5064011;27;88787;-84
2022/03/25 17:09:24;;;;;;;54.23;28.90;;;;;;;;;;5093038;27;88889;-83
2022/03/25 17:12:11;;;;;;;35.60;27.67;;;;;;;;;;5087968;27;88889;-89
2022/03/25 17:14:57;;;;;;;33.93;27.77;;;;;;;;;;5080664;27;89268;-88
2022/03/25 17:17:44;;;;;;;35.67;27.30;;;;;;;;;;5081920;27;88495;-87
2022/03/25 17:20:31;;;;;;;31.50;26.40;;;;;;;;;;5075184;27;89167;-88
2022/03/25 17:23:18;;;;;;;37.00;25.27;;;;;;;;;;5060877;27;88581;-91
2022/03/25 17:26:04;;;;;;;32.70;25.90;;;;;;;;;;5077800;27;88965;-93
2022/03/25 17:28:51;;;;;;;34.00;25.93;;;;;;;;;;5078968;27;88891;-93
2022/03/25 17:31:38;;;;;;;32.03;25.57;;;;;;;;;;5080369;27;88510;-89
2022/03/25 17:34:25;;;;;;;31.90;23.97;;;;;;;;;;5079672;27;88543;-85
2022/03/25 17:37:11;;;;;;;35.10;26.30;;;;;;;;;;5061083;27;89471;-89
2022/03/25 17:39:58;;;;;;;31.10;24.53;;;;;;;;;;5062921;27;89278;-91
2022/03/25 17:42:45;;;;;;;35.77;27.63;;;;;;;;;;5061557;27;88596;-88
2022/03/25 17:45:32;;;;;;;30.63;24.30;;;;;;;;;;5076756;27;89393;-89
2022/03/25 17:48:21;;;;;;;29.30;23.40;;;;;;;;;;5080446;27;88805;-86
2022/03/25 17:51:08;;;;;;;33.63;24.33;;;;;;;;;;5082576;27;88945;-87
2022/03/25 17:53:54;;;;;;;33.00;25.47;;;;;;;;;;5062035;27;88910;-86
2022/03/25 17:56:41;;;;;;;35.10;26.77;;;;;;;;;;5086280;27;88746;-86
2022/03/25 17:59:28;;;;;;;35.53;27.13;;;;;;;;;;5080487;27;88913;-87
2022/03/25 18:02:14;;;;;;;35.83;28.30;;;;;;;;;;5061965;27;88554;-85
2022/03/25 18:05:01;;;;;;;38.83;27.50;;;;;;;;;;5084035;27;88543;-87
2022/03/25 18:07:49;;;;;;;44.57;32.43;;;;;;;;;;5090559;27;88567;-89
2022/03/25 18:10:36;;;;;;;47.50;41.90;;;;;;;;;;5076687;27;88985;-87
2022/03/25 18:13:22;;;;;;;64.30;58.40;;;;;;;;;;5077722;27;89092;-88
2022/03/25 18:16:10;;;;;;;109.80;101.90;;;;;;;;;;5077399;27;89010;-88
2022/03/25 18:18:56;;;;;;;41.97;35.03;;;;;;;;;;5074512;27;91539;-87
2022/03/25 18:21:43;;;;;;;36.03;28.37;;;;;;;;;;5079703;27;88865;-91
2022/03/25 18:24:30;;;;;;;36.57;25.90;;;;;;;;;;5077437;27;88500;-88
2022/03/25 18:27:17;;;;;;;45.00;40.43;;;;;;;;;;5075456;27;88504;-90
2022/03/25 18:30:04;;;;;;;44.20;32.37;;;;;;;;;;5089276;27;88964;-88
2022/03/25 18:32:57;;;;;;;45.70;33.70;;;;;;;;;;5079625;27;88828;-92
2022/03/25 18:35:43;;;;;;;42.20;30.30;;;;;;;;;;5092356;27;88940;-91
2022/03/25 18:38:30;;;;;;;35.00;25.70;;;;;;;;;;5090343;27;88889;-92
2022/03/25 18:41:17;;;;;;;41.20;31.23;;;;;;;;;;5090839;27;88880;-93
2022/03/25 18:44:04;;;;;;;40.37;31.17;;;;;;;;;;5091382;27;88994;-94
2022/03/25 18:46:51;;;;;;;45.53;35.70;;;;;;;;;;5078925;27;88725;-91
2022/03/25 18:49:39;;;;;;;40.27;34.23;;;;;;;;;;5080282;27;88635;-91
2022/03/25 18:52:26;;;;;;;48.07;39.43;;;;;;;;;;5085835;27;88590;-86
2022/03/25 18:55:13;;;;;;;49.23;43.50;;;;;;;;;;5076384;27;88940;-86
2022/03/25 18:58:00;;;;;;;41.67;34.03;;;;;;;;;;5078130;27;88991;-87
2022/03/25 19:00:48;;;;;;;43.93;30.23;;;;;;;;;;5078480;27;88804;-89
2022/03/25 19:03:35;;;;;;;71.03;64.20;;;;;;;;;;5094434;27;88713;-88
2022/03/25 19:06:21;;;;;;;42.67;37.10;;;;;;;;;;5075916;27;89362;-89
2022/03/25 19:09:08;;;;;;;32.60;26.93;;;;;;;;;;5077645;27;88955;-89
2022/03/25 19:11:58;;;;;;;34.63;28.97;;;;;;;;;;5077335;27;88607;-88
2022/03/25 19:14:45;;;;;;;38.53;29.77;;;;;;;;;;5078264;27;89036;-89
2022/03/25 19:17:32;;;;;;;32.70;25.53;;;;;;;;;;5066396;27;88933;-88
2022/03/25 19:20:19;;;;;;;33.10;25.30;;;;;;;;;;5069752;27;88858;-87
2022/03/25 19:23:06;;;;;;;31.47;24.53;;;;;;;;;;5076928;27;88510;-89
2022/03/25 19:25:53;;;;;;;39.80;35.23;;;;;;;;;;5079095;27;88509;-90
2022/03/25 19:28:39;;;;;;;32.90;27.60;;;;;;;;;;5079144;27;89003;-89
2022/03/25 19:31:26;;;;;;;31.50;23.93;;;;;;;;;;5077941;27;88787;-86
2022/03/25 19:34:14;;;;;;;36.27;29.27;;;;;;;;;;5075054;27;88602;-87
2022/03/25 19:37:00;;;;;;;48.60;39.87;;;;;;;;;;5059159;27;88819;-87
2022/03/25 19:39:47;;;;;;;35.03;25.00;;;;;;;;;;5087986;27;88899;-86
2022/03/25 19:42:35;;;;;;;34.60;24.07;;;;;;;;;;5074077;27;88535;-86
2022/03/25 19:45:22;;;;;;;35.00;24.63;;;;;;;;;;5073756;27;88655;-88
2022/03/25 19:48:09;;;;;;;32.90;24.70;;;;;;;;;;5058612;27;88723;-87
2022/03/25 19:50:55;;;;;;;62.23;57.00;;;;;;;;;;5075731;27;88946;-90
2022/03/25 19:53:42;;;;;;;38.23;25.00;;;;;;;;;;5068747;27;88503;-87
2022/03/25 19:56:30;;;;;;;31.33;22.63;;;;;;;;;;5080642;27;88459;-88
2022/03/25 19:59:17;;;;;;;39.93;24.33;;;;;;;;;;5065521;27;88898;-90
2022/03/25 20:02:03;;;;;;;31.07;22.60;;;;;;;;;;5078858;27;89010;-90
2022/03/25 20:04:50;;;;;;;31.90;23.33;;;;;;;;;;5072835;27;88502;-90
2022/03/25 20:07:38;;;;;;;37.37;24.17;;;;;;;;;;5059116;27;88524;-89
2022/03/25 20:10:25;;;;;;;31.97;23.83;;;;;;;;;;5074830;27;89009;-90
2022/03/25 20:13:12;;;;;;;32.97;26.13;;;;;;;;;;5072428;27;89072;-87
2022/03/25 20:15:58;;;;;;;32.33;24.57;;;;;;;;;;5048721;27;88988;-90
2022/03/25 20:18:45;;;;;;;33.83;27.97;;;;;;;;;;5040231;27;88387;-90
2022/03/25 20:21:32;;;;;;;37.80;26.30;;;;;;;;;;5063730;27;88748;-90
2022/03/25 20:24:19;;;;;;;33.17;24.67;;;;;;;;;;5063878;27;88979;-90
2022/03/25 20:27:06;;;;;;;35.13;26.33;;;;;;;;;;5065472;27;88750;-89
2022/03/25 20:29:53;;;;;;;36.80;25.20;;;;;;;;;;5065351;27;88875;-94
2022/03/25 20:32:40;;;;;;;37.00;23.70;;;;;;;;;;5066585;27;88968;-94
2022/03/25 20:35:27;;;;;;;40.90;26.83;;;;;;;;;;5062367;27;88803;-88
2022/03/25 20:38:14;;;;;;;33.60;26.50;;;;;;;;;;5052460;27;89282;-89
2022/03/25 20:41:01;;;;;;;36.20;28.17;;;;;;;;;;5058653;27;89190;-87
2022/03/25 20:43:48;;;;;;;37.03;24.83;;;;;;;;;;5068710;27;88509;-87
2022/03/25 20:46:35;;;;;;;32.47;24.90;;;;;;;;;;5043289;27;88722;-85
2022/03/25 20:49:21;;;;;;;33.17;24.77;;;;;;;;;;5055579;27;88736;-84
2022/03/25 20:52:09;;;;;;;33.03;24.20;;;;;;;;;;5062983;27;88480;-85
2022/03/25 20:54:55;;;;;;;40.13;27.57;;;;;;;;;;5042836;27;89073;-85
2022/03/25 20:57:42;;;;;;;34.10;26.63;;;;;;;;;;5046903;27;88687;-84
2022/03/25 21:00:31;;;;;;;44.47;39.90;;;;;;;;;;5039771;27;89012;-83
2022/03/25 21:03:17;;;;;;;34.30;25.40;;;;;;;;;;5061613;27;89280;-85
2022/03/25 21:06:04;;;;;;;39.00;27.57;;;;;;;;;;5054497;27;89451;-92
2022/03/25 21:08:51;;;;;;;34.47;25.97;;;;;;;;;;5062595;27;89477;-84
2022/03/25 21:11:37;;;;;;;32.20;25.07;;;;;;;;;;5079789;27;88871;-86
2022/03/25 21:14:24;;;;;;;45.40;36.97;;;;;;;;;;5051871;27;88996;-85
2022/03/25 21:17:11;;;;;;;34.13;25.30;;;;;;;;;;5058195;27;88870;-85
2022/03/25 21:19:58;;;;;;;36.53;26.47;;;;;;;;;;5056418;27;88950;-87
2022/03/25 21:22:45;;;;;;;32.40;24.77;;;;;;;;;;5057104;27;88949;-87
2022/03/25 21:25:31;;;;;;;36.43;26.80;;;;;;;;;;5056799;27;88649;-87
2022/03/25 21:28:19;;;;;;;39.00;28.60;;;;;;;;;;5055118;27;89004;-86
2022/03/25 21:31:07;;;;;;;34.23;27.53;;;;;;;;;;5055951;27;88795;-88
2022/03/25 21:33:53;;;;;;;34.93;27.60;;;;;;;;;;5049790;27;88914;-85
2022/03/25 21:36:41;;;;;;;37.57;26.33;;;;;;;;;;5059050;27;88456;-85
2022/03/25 21:39:29;;;;;;;36.23;26.00;;;;;;;;;;5053856;27;88554;-84
2022/03/25 21:42:15;;;;;;;32.77;25.10;;;;;;;;;;5038139;27;88944;-86
2022/03/25 21:45:03;;;;;;;43.60;26.50;;;;;;;;;;5040094;27;88436;-87
2022/03/25 21:47:49;;;;;;;37.20;28.20;;;;;;;;;;5056697;27;88450;-87
2022/03/25 21:50:37;;;;;;;34.97;23.90;;;;;;;;;;5049757;27;88582;-90
2022/03/25 21:53:24;;;;;;;37.30;28.93;;;;;;;;;;5050945;27;89272;-86
2022/03/25 21:56:11;;;;;;;37.87;26.50;;;;;;;;;;5067057;27;88686;-87
2022/03/25 21:58:57;;;;;;;40.60;33.60;;;;;;;;;;5066369;27;88468;-87
2022/03/25 22:01:44;;;;;;;35.23;25.60;;;;;;;;;;5054604;27;88842;-90
2022/03/25 22:04:32;;;;;;;45.10;30.77;;;;;;;;;;5055942;27;89452;-90
2022/03/25 22:07:18;;;;;;;48.20;32.90;;;;;;;;;;5054829;27;88432;-89
2022/03/25 22:10:05;;;;;;;47.07;31.77;;;;;;;;;;5063106;27;88706;-88
2022/03/25 22:12:52;;;;;;;48.37;30.17;;;;;;;;;;5058650;27;88622;-89
2022/03/25 22:15:39;;;;;;;44.87;30.13;;;;;;;;;;5054750;27;88952;-89
2022/03/25 22:18:25;;;;;;;38.33;28.40;;;;;;;;;;5042199;27;88829;-90
2022/03/25 22:21:12;;;;;;;43.90;28.60;;;;;;;;;;5069132;27;89050;-89
2022/03/25 22:23:59;;;;;;;41.80;28.60;;;;;;;;;;5071553;27;88846;-88
2022/03/25 22:26:46;;;;;;;52.27;46.33;;;;;;;;;;5049851;27;89470;-89
2022/03/25 22:29:32;;;;;;;37.10;26.57;;;;;;;;;;5057795;27;88839;-88
2022/03/25 22:32:19;;;;;;;61.93;56.17;;;;;;;;;;5041197;27;89593;-88
2022/03/25 22:35:06;;;;;;;52.10;45.40;;;;;;;;;;5071436;27;88763;-89
2022/03/25 22:37:53;;;;;;;39.17;27.83;;;;;;;;;;5073626;27;89686;-87
2022/03/25 22:40:40;;;;;;;119.23;109.93;;;;;;;;;;5055479;27;88588;-87
2022/03/25 22:43:27;;;;;;;38.40;28.40;;;;;;;;;;5055350;27;90764;-87
2022/03/25 22:46:13;;;;;;;39.83;27.83;;;;;;;;;;5067600;27;88612;-87
2022/03/25 22:49:00;;;;;;;44.03;28.90;;;;;;;;;;5060833;27;89567;-86
2022/03/25 22:51:47;;;;;;;44.30;31.47;;;;;;;;;;5066973;27;88712;-87
2022/03/25 22:54:33;;;;;;;40.93;30.47;;;;;;;;;;5055471;27;89089;-86
2022/03/25 22:57:20;;;;;;;44.07;30.57;;;;;;;;;;5072466;27;89301;-87
2022/03/25 23:00:08;;;;;;;85.43;78.17;;;;;;;;;;5066575;27;88930;-86
2022/03/25 23:02:55;;;;;;;60.13;49.83;;;;;;;;;;5068239;27;88524;-87
2022/03/25 23:05:42;;;;;;;49.47;36.00;;;;;;;;;;5060965;27;88905;-88
2022/03/25 23:08:28;;;;;;;41.70;28.90;;;;;;;;;;5055042;27;88660;-90
2022/03/25 23:11:15;;;;;;;230.57;216.53;;;;;;;;;;5055117;27;88890;-89
2022/03/25 23:14:02;;;;;;;181.17;169.87;;;;;;;;;;5060941;27;90823;-89
2022/03/25 23:16:50;;;;;;;49.07;36.47;;;;;;;;;;5057481;27;90814;-90
2022/03/25 23:19:37;;;;;;;37.97;26.87;;;;;;;;;;5064318;27;88874;-90
2022/03/25 23:22:24;;;;;;;38.60;26.57;;;;;;;;;;5059740;27;89358;-88
2022/03/25 23:25:10;;;;;;;36.97;26.87;;;;;;;;;;5052178;27;88558;-90
2022/03/25 23:27:57;;;;;;;40.37;29.37;;;;;;;;;;5056420;27;89141;-86
2022/03/25 23:30:44;;;;;;;39.23;28.90;;;;;;;;;;5072000;27;88911;-87
2022/03/25 23:33:30;;;;;;;35.10;25.63;;;;;;;;;;5054529;27;88914;-87
2022/03/25 23:36:17;;;;;;;38.87;25.53;;;;;;;;;;5054727;27;88645;-87
2022/03/25 23:39:04;;;;;;;31.73;24.03;;;;;;;;;;5053419;27;88493;-86
2022/03/25 23:41:50;;;;;;;36.53;24.70;;;;;;;;;;5052075;27;88647;-84
2022/03/25 23:44:37;;;;;;;48.70;32.67;;;;;;;;;;5050842;27;89688;-85
2022/03/25 23:47:24;;;;;;;38.23;27.63;;;;;;;;;;5063125;27;88602;-84
2022/03/25 23:50:11;;;;;;;52.97;47.27;;;;;;;;;;5051362;27;88442;-83
2022/03/25 23:52:58;;;;;;;41.23;27.10;;;;;;;;;;5051318;27;88576;-83
2022/03/25 23:55:45;;;;;;;93.23;85.53;;;;;;;;;;5064540;27;89019;-84
2022/03/25 23:58:32;;;;;;;39.53;26.37;;;;;;;;;;5064507;27;89139;-84
